Time;durP1;ratioP1;P1;durP2;ratioP2;P2;SDS_P1;SDS_P2;PMS_P1;PMS_P2;Temp;Humidity;BMP_temperature;BMP_pressure;BME280_temperature;BME280_humidity;BME280_pressure;Samples;Min_cycle;Max_cycle;Signal;HPM_P1;HPM_P2
2023/01/09 00:00:38;;;;;;;;;;;;;;;5.30;100.00;99375.75;4992344;28;19924;-79
2023/01/09 00:03:03;;;;;;;;;;;;;;;5.30;100.00;99379.19;4994265;28;19929;-77
2023/01/09 00:05:28;;;;;;;;;;;;;;;5.33;100.00;99371.06;5026834;28;19988;-79
2023/01/09 00:07:53;;;;;;;;;;;;;;;5.34;100.00;99374.47;5005337;28;19941;-77
2023/01/09 00:10:19;;;;;;;;;;;;;;;5.36;100.00;99373.34;5015046;28;19925;-79
2023/01/09 00:12:44;;;;;;;;;;;;;;;5.38;100.00;99360.13;4996475;28;19926;-79
2023/01/09 00:15:09;;;;;;;;;;;;;;;5.38;100.00;99369.75;4994586;28;19933;-79
2023/01/09 00:17:35;;;;;;;;;;;;;;;5.38;100.00;99360.13;5014752;28;19983;-79
2023/01/09 00:20:00;;;;;;;;;;;;;;;5.40;100.00;99363.41;5008052;28;20404;-79
2023/01/09 00:22:26;;;;;;;;;;;;;;;5.40;100.00;99362.56;4995060;28;19978;-79
2023/01/09 00:24:51;;;;;;;;;;;;;;;5.43;100.00;99367.50;4994343;28;19925;-78
2023/01/09 00:27:16;;;;;;;;;;;;;;;5.44;100.00;99369.13;5023763;28;20020;-78
2023/01/09 00:29:44;;;;;;;;;;;;;;;5.47;100.00;99376.69;4993118;28;19976;-79
2023/01/09 00:32:11;;;;;;;;;;;;;;;5.44;100.00;99377.81;4994333;28;19918;-79
2023/01/09 00:34:39;;;;;;;;;;;;;;;5.46;100.00;99383.72;5024756;28;20008;-79
2023/01/09 00:37:10;;;;;;;;;;;;;;;5.48;100.00;99391.41;4992714;28;20016;-79
2023/01/09 00:39:36;;;;;;;;;;;;;;;5.47;100.00;99387.16;4992069;28;19918;-78
2023/01/09 00:42:01;;;;;;;;;;;;;;;5.50;100.00;99394.69;5025538;28;20419;-79
2023/01/09 00:44:33;;;;;;;;;;;;;;;5.59;100.00;99401.63;5024122;28;19957;-79
2023/01/09 00:47:01;;;;;;;;;;;;;;;5.55;100.00;99408.13;4992804;28;19961;-79
2023/01/09 00:49:32;;;;;;;;;;;;;;;5.56;100.00;99415.03;4993028;28;19929;-78
2023/01/09 00:51:57;;;;;;;;;;;;;;;5.53;100.00;99417.94;5011393;28;20781;-77
2023/01/09 00:54:22;;;;;;;;;;;;;;;5.52;100.00;99424.97;5024108;28;19925;-79
2023/01/09 00:56:48;;;;;;;;;;;;;;;5.53;100.00;99441.50;4992250;28;20020;-79
2023/01/09 00:59:13;;;;;;;;;;;;;;;5.59;100.00;99440.06;4999797;28;20016;-80
2023/01/09 01:01:39;;;;;;;;;;;;;;;5.61;100.00;99436.31;5024195;28;19924;-80
2023/01/09 01:07:37;;;;;;;;;;;;;;;5.58;100.00;99431.41;4993120;28;19922;-79
2023/01/09 01:09:33;;;;;;;;;;;;;;;5.57;100.00;99406.19;5018658;28;20600;-80
2023/01/09 01:12:00;;;;;;;;;;;;;;;5.60;100.00;99400.66;4992728;28;19922;-79
2023/01/09 01:14:25;;;;;;;;;;;;;;;5.61;100.00;99381.34;4990700;28;19917;-79
2023/01/09 01:16:50;;;;;;;;;;;;;;;5.56;100.00;99383.63;5006697;28;19936;-79
2023/01/09 01:19:16;;;;;;;;;;;;;;;5.52;100.00;99382.28;4993307;28;20506;-79
2023/01/09 01:21:41;;;;;;;;;;;;;;;5.52;100.00;99380.47;5015309;28;20648;-77
2023/01/09 01:24:06;;;;;;;;;;;;;;;5.48;100.00;99376.53;5023528;28;20753;-80
2023/01/09 01:26:31;;;;;;;;;;;;;;;5.47;100.00;99369.66;4991740;28;20305;-79
2023/01/09 01:29:00;;;;;;;;;;;;;;;5.49;100.00;99362.47;4991194;28;19964;-79
2023/01/09 01:31:25;;;;;;;;;;;;;;;5.51;100.00;99355.31;4991394;28;19917;-79
2023/01/09 01:33:50;;;;;;;;;;;;;;;5.48;100.00;99350.34;5021966;28;20405;-79
2023/01/09 01:36:16;;;;;;;;;;;;;;;5.45;100.00;99358.53;4992603;28;19932;-77
2023/01/09 01:38:42;;;;;;;;;;;;;;;5.44;100.00;99363.91;5023429;28;20043;-79
2023/01/09 01:41:07;;;;;;;;;;;;;;;5.39;100.00;99374.84;5023545;28;20354;-78
2023/01/09 01:43:48;;;;;;;;;;;;;;;5.35;100.00;99374.31;5006532;28;19932;-79
2023/01/09 01:46:15;;;;;;;;;;;;;;;5.27;100.00;99382.13;4990461;28;19921;-79
2023/01/09 01:48:40;;;;;;;;;;;;;;;5.31;100.00;99380.84;4991399;28;20368;-78
2023/01/09 01:51:06;;;;;;;;;;;;;;;5.31;100.00;99391.31;4993053;28;19980;-79
2023/01/09 01:53:34;;;;;;;;;;;;;;;5.29;100.00;99382.78;4993334;28;20513;-79
2023/01/09 01:55:59;;;;;;;;;;;;;;;5.29;100.00;99388.03;4992708;28;20387;-78
2023/01/09 01:58:25;;;;;;;;;;;;;;;5.30;100.00;99384.41;4990533;28;19955;-79
2023/01/09 02:00:50;;;;;;;;;;;;;;;5.30;100.00;99388.84;5005302;28;19981;-79
2023/01/09 02:03:17;;;;;;;;;;;;;;;5.30;100.00;99389.66;4990789;28;20241;-79
2023/01/09 02:05:42;;;;;;;;;;;;;;;5.34;100.00;99391.00;4992239;28;20411;-78
2023/01/09 02:08:08;;;;;;;;;;;;;;;5.33;100.00;99394.59;4992294;28;19925;-79
2023/01/09 02:10:34;;;;;;;;;;;;;;;5.35;100.00;99397.84;5022007;28;20028;-78
2023/01/09 02:13:00;;;;;;;;;;;;;;;5.36;100.00;99409.97;4991957;28;19967;-77
2023/01/09 02:15:28;;;;;;;;;;;;;;;5.38;100.00;99415.06;4993373;28;19922;-79
2023/01/09 02:18:06;;;;;;;;;;;;;;;5.39;100.00;99418.50;4990773;28;19933;-78
2023/01/09 02:20:54;;;;;;;;;;;;;;;5.39;100.00;99437.63;5023026;28;19983;-78
2023/01/09 02:23:20;;;;;;;;;;;;;;;5.38;100.00;99443.00;4991804;28;20012;-79
2023/01/09 02:25:54;;;;;;;;;;;;;;;5.35;100.00;99446.75;4991803;28;20429;-77
2023/01/09 02:28:22;;;;;;;;;;;;;;;5.35;100.00;99459.81;4991761;28;19925;-79
2023/01/09 02:31:08;;;;;;;;;;;;;;;5.37;100.00;99468.34;4991621;28;19922;-79
2023/01/09 02:33:58;;;;;;;;;;;;;;;5.30;100.00;99468.13;4991427;28;19921;-79
2023/01/09 02:36:23;;;;;;;;;;;;;;;5.43;100.00;99491.31;4991483;28;19993;-78
2023/01/09 02:38:55;;;;;;;;;;;;;;;5.47;100.00;99499.69;4992267;28;19944;-77
2023/01/09 02:41:23;;;;;;;;;;;;;;;5.46;100.00;99501.47;4991137;28;19921;-79
2023/01/09 02:44:00;;;;;;;;;;;;;;;5.47;100.00;99504.91;5005523;28;20305;-79
2023/01/09 02:46:26;;;;;;;;;;;;;;;5.45;100.00;99506.88;4990949;28;19928;-79
2023/01/09 02:48:52;;;;;;;;;;;;;;;5.44;100.00;99516.47;5022814;28;20300;-79
2023/01/09 02:51:25;;;;;;;;;;;;;;;5.44;100.00;99520.91;4993346;28;19922;-78
2023/01/09 02:53:56;;;;;;;;;;;;;;;5.44;100.00;99515.66;4990287;28;19965;-79
2023/01/09 02:56:35;;;;;;;;;;;;;;;5.38;100.00;99516.25;4991239;28;19932;-78
2023/01/09 02:59:00;;;;;;;;;;;;;;;5.40;100.00;99530.00;4989890;28;20435;-79
2023/01/09 03:01:33;;;;;;;;;;;;;;;5.39;100.00;99534.44;4990173;28;19917;-77
2023/01/09 03:04:01;;;;;;;;;;;;;;;5.37;100.00;99533.75;4991343;28;19924;-79
2023/01/09 03:06:41;;;;;;;;;;;;;;;5.34;100.00;99531.44;4991727;28;19960;-78
2023/01/09 03:09:10;;;;;;;;;;;;;;;5.29;100.00;99534.50;4991421;28;19926;-79
2023/01/09 03:11:39;;;;;;;;;;;;;;;5.25;100.00;99538.41;4991131;28;19973;-79
2023/01/09 03:14:09;;;;;;;;;;;;;;;5.20;100.00;99545.84;4993733;28;20308;-77
2023/01/09 03:16:35;;;;;;;;;;;;;;;5.16;100.00;99560.19;4994925;28;19922;-79
2023/01/09 03:19:02;;;;;;;;;;;;;;;5.13;100.00;99566.53;4994608;28;19986;-78
2023/01/09 03:21:29;;;;;;;;;;;;;;;5.12;100.00;99564.09;4994494;28;19917;-79
2023/01/09 03:23:58;;;;;;;;;;;;;;;5.12;100.00;99564.91;5009770;28;19940;-76
2023/01/09 03:26:24;;;;;;;;;;;;;;;5.07;100.00;99579.38;4995924;28;20004;-79
2023/01/09 03:28:49;;;;;;;;;;;;;;;5.02;100.00;99579.00;4994053;28;19926;-78
2023/01/09 03:31:15;;;;;;;;;;;;;;;4.98;100.00;99578.44;4993190;28;19921;-76
2023/01/09 03:33:40;;;;;;;;;;;;;;;4.94;100.00;99588.38;4995380;28;19921;-78
2023/01/09 03:36:06;;;;;;;;;;;;;;;4.88;100.00;99596.81;4995289;28;20031;-79
2023/01/09 03:38:32;;;;;;;;;;;;;;;4.83;100.00;99604.25;4994335;28;19988;-78
2023/01/09 03:40:57;;;;;;;;;;;;;;;4.77;100.00;99607.44;4993558;28;20305;-79
2023/01/09 03:43:22;;;;;;;;;;;;;;;4.73;100.00;99608.69;5011921;28;20397;-77
2023/01/09 03:45:47;;;;;;;;;;;;;;;4.69;100.00;99608.16;5025090;28;19917;-80
2023/01/09 03:48:13;;;;;;;;;;;;;;;4.66;100.00;99615.44;5025613;28;20550;-79
2023/01/09 03:50:41;;;;;;;;;;;;;;;4.63;100.00;99619.16;5024848;28;19934;-79
2023/01/09 03:53:06;;;;;;;;;;;;;;;4.62;100.00;99637.63;5026338;28;19929;-79
2023/01/09 03:55:31;;;;;;;;;;;;;;;4.60;100.00;99639.53;4995306;28;20396;-79
2023/01/09 03:57:57;;;;;;;;;;;;;;;4.55;100.00;99647.78;5008738;28;19932;-79
2023/01/09 04:00:22;;;;;;;;;;;;;;;4.51;100.00;99643.81;5006334;28;20021;-79
2023/01/09 04:02:47;;;;;;;;;;;;;;;4.47;100.00;99656.34;4993288;28;19935;-79
2023/01/09 04:05:12;;;;;;;;;;;;;;;4.42;100.00;99661.16;5025527;28;20285;-79
2023/01/09 04:07:38;;;;;;;;;;;;;;;4.38;100.00;99672.84;5024880;28;19922;-79
2023/01/09 04:10:03;;;;;;;;;;;;;;;4.36;100.00;99681.81;4994032;28;20392;-79
2023/01/09 04:12:28;;;;;;;;;;;;;;;4.32;100.00;99694.31;4991795;28;19976;-79
2023/01/09 04:14:54;;;;;;;;;;;;;;;4.25;100.00;99696.63;5024406;28;20007;-79
2023/01/09 04:17:19;;;;;;;;;;;;;;;4.28;100.00;99705.97;4994429;28;19936;-79
2023/01/09 04:19:44;;;;;;;;;;;;;;;4.23;100.00;99708.19;5008938;28;19917;-79
2023/01/09 04:22:09;;;;;;;;;;;;;;;4.22;100.00;99722.19;4993366;28;19925;-79
2023/01/09 04:24:35;;;;;;;;;;;;;;;4.19;100.00;99723.28;4994405;28;19980;-79
2023/01/09 04:27:00;;;;;;;;;;;;;;;4.15;100.00;99726.31;4993200;28;20377;-79
2023/01/09 04:29:25;;;;;;;;;;;;;;;4.11;100.00;99741.41;5025668;28;20501;-78
2023/01/09 04:31:50;;;;;;;;;;;;;;;4.09;100.00;99738.97;4991774;28;19921;-80
2023/01/09 04:34:15;;;;;;;;;;;;;;;4.05;100.00;99741.97;4993538;28;20017;-79
2023/01/09 04:36:41;;;;;;;;;;;;;;;4.02;100.00;99750.91;4993293;28;19972;-77
2023/01/09 04:39:07;;;;;;;;;;;;;;;3.98;100.00;99759.94;5000416;28;19940;-79
2023/01/09 04:41:47;;;;;;;;;;;;;;;3.95;100.00;99762.03;4993714;28;19930;-79
2023/01/09 04:44:13;;;;;;;;;;;;;;;3.96;100.00;99779.31;4992775;28;19922;-78
2023/01/09 04:46:38;;;;;;;;;;;;;;;3.94;100.00;99782.06;5006671;28;19975;-79
2023/01/09 04:49:03;;;;;;;;;;;;;;;3.90;100.00;99789.34;4994132;28;19936;-78
2023/01/09 04:51:29;;;;;;;;;;;;;;;3.90;100.00;99796.38;5022403;28;19926;-79
2023/01/09 04:53:54;;;;;;;;;;;;;;;3.88;100.00;99799.09;5024063;28;20481;-76
2023/01/09 04:56:19;;;;;;;;;;;;;;;3.89;100.00;99805.13;4992922;28;20024;-77
2023/01/09 04:58:44;;;;;;;;;;;;;;;3.86;100.00;99811.44;4992054;28;19922;-77
2023/01/09 05:01:10;;;;;;;;;;;;;;;3.86;100.00;99818.47;5008236;28;20278;-79
2023/01/09 05:03:35;;;;;;;;;;;;;;;3.88;100.00;99827.00;4992862;28;19922;-78
2023/01/09 05:06:00;;;;;;;;;;;;;;;3.89;100.00;99820.78;4994899;28;19929;-78
2023/01/09 05:08:25;;;;;;;;;;;;;;;3.90;100.00;99822.47;4992656;28;19979;-76
2023/01/09 05:10:51;;;;;;;;;;;;;;;3.88;100.00;99824.38;4992684;28;20346;-79
2023/01/09 05:13:16;;;;;;;;;;;;;;;3.91;100.00;99829.31;5023393;28;19928;-79
2023/01/09 05:15:41;;;;;;;;;;;;;;;3.88;100.00;99837.44;4991803;28;19930;-78
2023/01/09 05:18:06;;;;;;;;;;;;;;;3.87;100.00;99840.97;4993084;28;19933;-78
2023/01/09 05:20:32;;;;;;;;;;;;;;;3.83;100.00;99845.66;4992084;28;20031;-77
2023/01/09 05:22:57;;;;;;;;;;;;;;;3.84;100.00;99851.69;5006043;28;20004;-77
2023/01/09 05:25:22;;;;;;;;;;;;;;;3.81;100.00;99854.56;4993464;28;19953;-78
2023/01/09 05:27:47;;;;;;;;;;;;;;;3.78;100.00;99853.03;5023688;28;19926;-78
2023/01/09 05:30:13;;;;;;;;;;;;;;;3.76;100.00;99860.16;5006908;28;20396;-77
2023/01/09 05:32:38;;;;;;;;;;;;;;;3.75;100.00;99870.75;5006253;28;20028;-78
2023/01/09 05:35:03;;;;;;;;;;;;;;;3.74;100.00;99869.91;4991156;28;19953;-77
2023/01/09 05:37:29;;;;;;;;;;;;;;;3.74;100.00;99877.75;4991267;28;20376;-79
2023/01/09 05:39:54;;;;;;;;;;;;;;;3.71;100.00;99875.41;5016184;28;19928;-77
2023/01/09 05:42:19;;;;;;;;;;;;;;;3.68;100.00;99881.72;5021777;28;20061;-78
2023/01/09 05:44:44;;;;;;;;;;;;;;;3.69;100.00;99885.97;4991074;28;19932;-77
2023/01/09 05:47:10;;;;;;;;;;;;;;;3.68;100.00;99896.50;5024480;28;20254;-78
2023/01/09 05:49:35;;;;;;;;;;;;;;;3.64;100.00;99903.78;4991662;28;19972;-77
2023/01/09 05:52:00;;;;;;;;;;;;;;;3.65;100.00;99913.25;4991292;28;19992;-76
2023/01/09 05:54:25;;;;;;;;;;;;;;;3.63;100.00;99914.34;4992711;28;19979;-77
2023/01/09 05:56:51;;;;;;;;;;;;;;;3.65;100.00;99930.72;4992435;28;19917;-78
2023/01/09 05:59:16;;;;;;;;;;;;;;;3.69;100.00;99930.31;4991672;28;19933;-78
2023/01/09 06:01:41;;;;;;;;;;;;;;;3.71;100.00;99938.84;4991183;28;20018;-79
2023/01/09 06:04:06;;;;;;;;;;;;;;;3.75;100.00;99942.03;5004617;28;19925;-79
2023/01/09 06:06:32;;;;;;;;;;;;;;;3.80;100.00;99955.53;4993034;28;19940;-79
2023/01/09 06:08:57;;;;;;;;;;;;;;;3.88;100.00;99954.91;4991558;28;19921;-78
2023/01/09 06:11:22;;;;;;;;;;;;;;;3.88;100.00;99966.16;4992447;28;19924;-80
2023/01/09 06:13:47;;;;;;;;;;;;;;;3.97;100.00;99974.19;5023129;28;19984;-77
2023/01/09 06:16:13;;;;;;;;;;;;;;;4.00;100.00;99984.34;5023344;28;19925;-79
2023/01/09 06:18:38;;;;;;;;;;;;;;;4.05;100.00;99985.63;4991209;28;19936;-79
2023/01/09 06:21:04;;;;;;;;;;;;;;;4.10;100.00;99982.63;4990374;28;19929;-79
2023/01/09 06:23:29;;;;;;;;;;;;;;;4.18;100.00;99995.03;4990673;28;20326;-77
2023/01/09 06:25:54;;;;;;;;;;;;;;;4.22;100.00;99999.03;5024597;28;19926;-78
2023/01/09 06:28:19;;;;;;;;;;;;;;;4.26;100.00;100006.47;4991334;28;20369;-78
2023/01/09 06:30:48;;;;;;;;;;;;;;;4.33;100.00;100017.22;5005061;28;19961;-77
2023/01/09 06:33:13;;;;;;;;;;;;;;;4.33;100.00;100014.63;4986351;28;19972;-80
2023/01/09 06:35:39;;;;;;;;;;;;;;;4.35;100.00;100004.88;5022981;28;20451;-78
2023/01/09 06:38:04;;;;;;;;;;;;;;;4.38;100.00;100007.25;4991548;28;19926;-80
2023/01/09 06:40:29;;;;;;;;;;;;;;;4.41;100.00;100008.75;5007090;28;19922;-79
2023/01/09 06:42:55;;;;;;;;;;;;;;;4.41;100.00;100012.19;5021502;28;20438;-78
2023/01/09 06:45:20;;;;;;;;;;;;;;;4.43;100.00;100012.88;4989301;28;19921;-77
2023/01/09 06:47:45;;;;;;;;;;;;;;;4.44;100.00;100008.47;5022086;28;19921;-78
2023/01/09 06:50:11;;;;;;;;;;;;;;;4.50;100.00;100008.78;5026630;28;20044;-78
2023/01/09 06:52:36;;;;;;;;;;;;;;;4.52;100.00;100012.09;4993683;28;20331;-78
2023/01/09 06:55:02;;;;;;;;;;;;;;;4.56;100.00;100007.44;4994119;28;19922;-78
2023/01/09 06:57:27;;;;;;;;;;;;;;;4.57;100.00;100003.03;4994615;28;19914;-79
2023/01/09 06:59:53;;;;;;;;;;;;;;;4.60;100.00;100003.63;5024252;28;19972;-77
2023/01/09 07:02:19;;;;;;;;;;;;;;;4.66;100.00;99997.00;5025482;28;20687;-78
2023/01/09 07:04:44;;;;;;;;;;;;;;;4.64;100.00;99996.31;5025621;28;20281;-77
2023/01/09 07:07:09;;;;;;;;;;;;;;;4.66;100.00;99991.78;4993635;28;19917;-77
2023/01/09 07:09:35;;;;;;;;;;;;;;;4.65;100.00;99979.69;5025144;28;20370;-77
2023/01/09 07:12:00;;;;;;;;;;;;;;;4.62;100.00;99978.19;5023272;28;19918;-77
2023/01/09 07:14:25;;;;;;;;;;;;;;;4.66;100.00;99971.72;5026178;28;19949;-78
2023/01/09 07:16:50;;;;;;;;;;;;;;;4.65;100.00;99966.63;4992527;28;20381;-78
2023/01/09 07:19:16;;;;;;;;;;;;;;;4.66;100.00;99958.66;5024796;28;19926;-78
2023/01/09 07:21:41;;;;;;;;;;;;;;;4.63;100.00;99952.88;5024909;28;19976;-78
2023/01/09 07:24:06;;;;;;;;;;;;;;;4.62;100.00;99951.22;4993859;28;19921;-78
2023/01/09 07:26:31;;;;;;;;;;;;;;;4.57;100.00;99948.16;4994312;28;19933;-77
2023/01/09 07:28:57;;;;;;;;;;;;;;;4.57;100.00;99932.47;4993381;28;20034;-78
2023/01/09 07:31:22;;;;;;;;;;;;;;;4.58;100.00;99931.53;5024178;28;19975;-77
2023/01/09 07:33:47;;;;;;;;;;;;;;;4.62;100.00;99932.94;5024386;28;19929;-77
2023/01/09 07:36:13;;;;;;;;;;;;;;;4.58;100.00;99926.31;5025781;28;19917;-78
2023/01/09 07:38:38;;;;;;;;;;;;;;;4.53;100.00;99924.09;4994880;28;20676;-78
2023/01/09 07:41:04;;;;;;;;;;;;;;;4.52;100.00;99915.41;5024843;28;19917;-78
2023/01/09 07:43:29;;;;;;;;;;;;;;;4.50;100.00;99919.13;4991804;28;20016;-78
2023/01/09 07:45:54;;;;;;;;;;;;;;;4.52;100.00;99906.75;5023843;28;19917;-78
2023/01/09 07:48:19;;;;;;;;;;;;;;;4.54;100.00;99905.66;4992610;28;19988;-77
2023/01/09 07:50:44;;;;;;;;;;;;;;;4.55;100.00;99911.69;5024491;28;20528;-78
2023/01/09 07:53:10;;;;;;;;;;;;;;;4.57;100.00;99903.75;5023760;28;19929;-78
2023/01/09 07:55:35;;;;;;;;;;;;;;;4.60;100.00;99904.31;4993555;28;19921;-78
2023/01/09 07:58:00;;;;;;;;;;;;;;;4.58;100.00;99901.00;5023585;28;19956;-78
2023/01/09 08:00:26;;;;;;;;;;;;;;;4.57;100.00;99899.34;5022163;28;19918;-78
2023/01/09 08:02:52;;;;;;;;;;;;;;;4.59;100.00;99899.22;4991892;28;20015;-78
2023/01/09 08:05:17;;;;;;;;;;;;;;;4.61;100.00;99897.28;4992499;28;19976;-78
2023/01/09 08:07:43;;;;;;;;;;;;;;;4.64;100.00;99897.84;4993074;28;20313;-78
2023/01/09 08:10:09;;;;;;;;;;;;;;;4.63;100.00;99893.56;4993234;28;20449;-78
2023/01/09 08:12:34;;;;;;;;;;;;;;;4.70;100.00;99894.69;5023523;28;19925;-78
2023/01/09 08:15:00;;;;;;;;;;;;;;;4.72;100.00;99894.53;5007020;28;19924;-78
2023/01/09 08:17:25;;;;;;;;;;;;;;;4.76;100.00;99888.09;5008547;28;20798;-78
2023/01/09 08:19:50;;;;;;;;;;;;;;;4.81;100.00;99896.34;4992404;28;19917;-78
2023/01/09 08:22:15;;;;;;;;;;;;;;;4.81;100.00;99891.09;5024374;28;19968;-77
2023/01/09 08:24:41;;;;;;;;;;;;;;;4.84;100.00;99896.09;5006527;28;20278;-78
2023/01/09 08:27:06;;;;;;;;;;;;;;;4.89;100.00;99880.81;5007184;28;20029;-78
2023/01/09 08:29:32;;;;;;;;;;;;;;;4.86;100.00;99865.41;4999612;28;20012;-78
2023/01/09 08:31:57;;;;;;;;;;;;;;;4.90;100.00;99868.56;5023306;28;20059;-78
2023/01/09 08:34:22;;;;;;;;;;;;;;;4.89;100.00;99864.28;5024134;28;20040;-78
2023/01/09 08:36:47;;;;;;;;;;;;;;;4.89;100.00;99854.66;5023769;28;19921;-78
2023/01/09 08:39:13;;;;;;;;;;;;;;;4.95;100.00;99855.91;5007640;28;20314;-78
2023/01/09 08:47:06;;;;;;;;;;;;;;;4.87;100.00;99848.75;5018966;28;20320;-78
2023/01/09 08:49:36;;;;;;;;;;;;;;;4.86;100.00;99847.09;4992063;28;19929;-78
2023/01/09 08:52:01;;;;;;;;;;;;;;;4.92;100.00;99850.94;4990993;28;20350;-78
2023/01/09 08:54:26;;;;;;;;;;;;;;;4.93;100.00;99842.16;5023356;28;19921;-78
2023/01/09 08:56:51;;;;;;;;;;;;;;;4.93;100.00;99840.34;4999044;28;19926;-78
2023/01/09 08:59:17;;;;;;;;;;;;;;;4.91;100.00;99838.84;5022702;28;20004;-78
2023/01/09 09:01:42;;;;;;;;;;;;;;;4.94;100.00;99831.56;5005692;28;19928;-78
2023/01/09 09:04:07;;;;;;;;;;;;;;;4.95;100.00;99827.97;5008027;28;20388;-78
2023/01/09 09:06:33;;;;;;;;;;;;;;;5.03;100.00;99834.28;4991663;28;19922;-78
2023/01/09 09:09:02;;;;;;;;;;;;;;;5.06;100.00;99836.63;4990415;28;19932;-78
2023/01/09 09:11:30;;;;;;;;;;;;;;;5.07;100.00;99835.66;5022780;28;20380;-78
2023/01/09 09:13:56;;;;;;;;;;;;;;;5.09;100.00;99831.13;4989367;28;20054;-78
2023/01/09 09:16:22;;;;;;;;;;;;;;;5.12;100.00;99825.63;4998871;28;20063;-78
2023/01/09 09:18:47;;;;;;;;;;;;;;;5.08;100.00;99822.44;4990875;28;19929;-78
2023/01/09 09:21:13;;;;;;;;;;;;;;;5.07;100.00;99806.88;4991530;28;20004;-78
2023/01/09 09:23:38;;;;;;;;;;;;;;;5.08;100.00;99811.16;5022191;28;20024;-77
2023/01/09 09:26:03;;;;;;;;;;;;;;;5.04;100.00;99807.19;4991266;28;20365;-78
2023/01/09 09:28:29;;;;;;;;;;;;;;;5.06;100.00;99806.06;5006038;28;19999;-78
2023/01/09 09:30:54;;;;;;;;;;;;;;;5.07;100.00;99806.88;4990720;28;20054;-78
2023/01/09 09:33:19;;;;;;;;;;;;;;;5.08;100.00;99805.94;5006715;28;19921;-78
2023/01/09 09:35:44;;;;;;;;;;;;;;;5.09;100.00;99812.81;5022315;28;20400;-77
2023/01/09 09:38:10;;;;;;;;;;;;;;;5.07;100.00;99817.34;4991117;28;19917;-78
2023/01/09 09:40:51;;;;;;;;;;;;;;;5.11;100.00;99813.50;5022597;28;20100;-78
2023/01/09 09:46:06;;;;;;;;;;;;;;;5.12;100.00;99825.63;4990103;28;19984;-78
2023/01/09 09:48:36;;;;;;;;;;;;;;;5.18;100.00;99825.03;4991494;28;20562;-78
2023/01/09 09:51:20;;;;;;;;;;;;;;;5.21;100.00;99821.34;4991764;28;19928;-78
2023/01/09 09:53:58;;;;;;;;;;;;;;;5.24;100.00;99819.25;4990457;28;19913;-78
2023/01/09 09:56:24;;;;;;;;;;;;;;;5.25;100.00;99823.53;4990269;28;20601;-78
2023/01/09 09:58:53;;;;;;;;;;;;;;;5.29;100.00;99829.28;4991532;28;19928;-78
2023/01/09 10:01:21;;;;;;;;;;;;;;;5.34;100.00;99820.06;4991015;28;20023;-78
2023/01/09 10:03:49;;;;;;;;;;;;;;;5.31;100.00;99825.59;4990910;28;20025;-78
2023/01/09 10:06:20;;;;;;;;;;;;;;;5.39;100.00;99821.44;4989741;28;19914;-78
2023/01/09 10:08:55;;;;;;;;;;;;;;;5.44;100.00;99819.22;4990969;28;20227;-78
2023/01/09 10:11:25;;;;;;;;;;;;;;;5.50;100.00;99826.50;4991063;28;20460;-78
2023/01/09 10:14:05;;;;;;;;;;;;;;;5.44;100.00;99820.03;4990525;28;19929;-78
2023/01/09 10:16:30;;;;;;;;;;;;;;;5.52;100.00;99828.00;4989723;28;19921;-78
2023/01/09 10:18:59;;;;;;;;;;;;;;;5.46;100.00;99818.09;4990006;28;20758;-78
2023/01/09 10:21:27;;;;;;;;;;;;;;;5.49;100.00;99823.06;4991247;28;20863;-79
2023/01/09 10:24:02;;;;;;;;;;;;;;;5.49;100.00;99823.06;4991599;28;19921;-79
2023/01/09 10:26:30;;;;;;;;;;;;;;;5.50;100.00;99823.88;4988803;28;20234;-78
2023/01/09 10:29:07;;;;;;;;;;;;;;;5.56;100.00;99828.56;5021084;28;19922;-78
2023/01/09 10:31:48;;;;;;;;;;;;;;;5.59;100.00;99830.06;4989797;28;19925;-78
2023/01/09 10:34:22;;;;;;;;;;;;;;;5.58;100.00;99831.84;4991067;28;19961;-78
2023/01/09 10:37:00;;;;;;;;;;;;;;;5.67;100.00;99836.22;4990875;28;20044;-78
2023/01/09 10:39:34;;;;;;;;;;;;;;;5.69;100.00;99843.94;4989649;28;20037;-78
2023/01/09 10:42:10;;;;;;;;;;;;;;;5.71;100.00;99842.81;4989500;28;20051;-78
2023/01/09 10:44:37;;;;;;;;;;;;;;;5.68;100.00;99832.66;4997336;28;19993;-79
2023/01/09 10:47:17;;;;;;;;;;;;;;;5.76;100.00;99830.13;4988509;28;19921;-78
2023/01/09 10:49:44;;;;;;;;;;;;;;;5.82;100.00;99822.69;4990738;28;19926;-78
2023/01/09 10:52:18;;;;;;;;;;;;;;;5.81;100.00;99821.81;4990325;28;19960;-78
2023/01/09 10:54:52;;;;;;;;;;;;;;;5.80;100.00;99820.19;4990089;28;19932;-78
2023/01/09 10:57:38;;;;;;;;;;;;;;;5.89;100.00;99813.25;4989527;28;19914;-78
2023/01/09 11:00:04;;;;;;;;;;;;;;;5.82;100.00;99814.81;4982277;28;19918;-78
2023/01/09 11:02:31;;;;;;;;;;;;;;;5.85;100.00;99812.72;4989772;28;19922;-78
2023/01/09 11:04:56;;;;;;;;;;;;;;;6.00;100.00;99810.47;4988896;28;19917;-78
2023/01/09 11:07:33;;;;;;;;;;;;;;;6.05;100.00;99816.09;4991356;28;19925;-79
2023/01/09 11:10:06;;;;;;;;;;;;;;;6.17;100.00;99807.06;4989748;28;20012;-79
2023/01/09 11:12:33;;;;;;;;;;;;;;;6.13;100.00;99808.34;4990274;28;20434;-79
2023/01/09 11:15:27;;;;;;;;;;;;;;;6.17;100.00;99795.78;4990053;28;19947;-79
2023/01/09 11:17:53;;;;;;;;;;;;;;;6.15;100.00;99803.78;4988678;28;20452;-79
2023/01/09 11:20:18;;;;;;;;;;;;;;;6.12;100.00;99793.59;4990566;28;20040;-78
2023/01/09 11:22:48;;;;;;;;;;;;;;;6.23;100.00;99799.59;4990581;28;20008;-78
2023/01/09 11:25:14;;;;;;;;;;;;;;;6.26;100.00;99796.69;4988523;28;19918;-78
2023/01/09 11:27:40;;;;;;;;;;;;;;;6.21;100.00;99793.69;4988090;28;20587;-79
2023/01/09 11:30:05;;;;;;;;;;;;;;;6.10;100.00;99784.25;4990582;28;20023;-79
2023/01/09 11:32:31;;;;;;;;;;;;;;;6.20;100.00;99785.00;4989663;28;19985;-78
2023/01/09 11:34:56;;;;;;;;;;;;;;;6.13;100.00;99790.00;4993258;28;19917;-79
2023/01/09 11:37:27;;;;;;;;;;;;;;;6.09;100.00;99779.97;5024648;28;19921;-78
2023/01/09 11:39:52;;;;;;;;;;;;;;;6.21;100.00;99793.69;4993074;28;20040;-78
2023/01/09 11:45:12;;;;;;;;;;;;;;;6.24;100.00;99801.25;4993377;28;19924;-78
2023/01/09 11:47:39;;;;;;;;;;;;;;;6.26;100.00;99801.94;4993135;28;19924;-78
2023/01/09 11:50:16;;;;;;;;;;;;;;;6.30;100.00;99804.09;4992179;28;20056;-78
2023/01/09 11:52:41;;;;;;;;;;;;;;;6.33;100.00;99808.22;4993293;28;19948;-79
2023/01/09 11:55:09;;;;;;;;;;;;;;;6.23;100.00;99803.06;4993247;28;20446;-78
2023/01/09 11:57:35;;;;;;;;;;;;;;;6.33;100.00;99801.16;5008359;28;19937;-78
2023/01/09 12:00:02;;;;;;;;;;;;;;;6.31;100.00;99807.53;4991103;28;19992;-78
2023/01/09 12:02:27;;;;;;;;;;;;;;;6.32;100.00;99811.81;4992316;28;19917;-78
2023/01/09 12:05:11;;;;;;;;;;;;;;;6.42;100.00;99815.19;4993216;28;19966;-78
2023/01/09 12:07:46;;;;;;;;;;;;;;;6.41;100.00;99808.31;4992396;28;19924;-79
2023/01/09 12:10:11;;;;;;;;;;;;;;;6.42;100.00;99807.31;4992762;28;19928;-78
2023/01/09 12:12:52;;;;;;;;;;;;;;;6.49;100.00;99816.25;4992191;28;19913;-79
2023/01/09 12:15:38;;;;;;;;;;;;;;;6.46;100.00;99802.63;4992035;28;20028;-78
2023/01/09 12:18:03;;;;;;;;;;;;;;;6.42;100.00;99804.69;4992264;28;19930;-78
2023/01/09 12:20:38;;;;;;;;;;;;;;;6.45;100.00;99803.59;5021713;28;19921;-78
2023/01/09 12:23:19;;;;;;;;;;;;;;;6.41;100.00;99797.81;4992357;28;19961;-78
2023/01/09 12:25:53;;;;;;;;;;;;;;;6.43;100.00;99811.59;4993222;28;19918;-78
2023/01/09 12:28:33;;;;;;;;;;;;;;;6.49;100.00;99818.88;4993735;28;19929;-78
2023/01/09 12:31:01;;;;;;;;;;;;;;;6.51;100.00;99814.31;4993204;28;20297;-78
2023/01/09 12:33:38;;;;;;;;;;;;;;;6.53;100.00;99822.84;4991153;28;20091;-78
2023/01/09 12:36:06;;;;;;;;;;;;;;;6.65;100.00;99827.88;4992514;28;20448;-78
2023/01/09 12:38:37;;;;;;;;;;;;;;;6.71;100.00;99822.84;4992850;28;19960;-78
2023/01/09 12:41:08;;;;;;;;;;;;;;;6.68;100.00;99824.94;4994380;28;19917;-79
2023/01/09 12:43:52;;;;;;;;;;;;;;;6.59;100.00;99813.56;4992555;28;19918;-78
2023/01/09 12:46:18;;;;;;;;;;;;;;;6.63;100.00;99822.78;5009476;28;19984;-77
2023/01/09 12:48:53;;;;;;;;;;;;;;;6.78;100.00;99825.69;5017775;28;20759;-78
2023/01/09 12:51:27;;;;;;;;;;;;;;;6.80;100.00;99821.13;4992158;28;19921;-78
2023/01/09 12:54:09;;;;;;;;;;;;;;;6.86;100.00;99831.03;4995944;28;19998;-78
2023/01/09 12:56:40;;;;;;;;;;;;;;;6.90;100.00;99819.25;4994929;28;19921;-78
2023/01/09 12:59:19;;;;;;;;;;;;;;;6.94;100.00;99825.00;4993940;28;20412;-78
2023/01/09 13:01:47;;;;;;;;;;;;;;;6.87;100.00;99822.16;4994835;28;20024;-79